createdAt,value
2019-04-11T00:01:53.023Z,1.80
2019-04-11T00:04:22.033Z,1.90
2019-04-11T00:06:52.003Z,1.90
2019-04-11T00:09:20.969Z,2.00
2019-04-11T00:11:50.372Z,1.90
2019-04-11T00:14:20.015Z,1.90
2019-04-11T00:16:49.869Z,1.90
2019-04-11T00:19:19.096Z,1.90
2019-04-11T00:21:48.898Z,2.00
2019-04-11T00:24:18.716Z,2.00
2019-04-11T00:26:48.622Z,2.00
2019-04-11T00:29:18.462Z,2.00
2019-04-11T00:31:48.050Z,2.00
2019-04-11T00:34:18.448Z,2.00
2019-04-11T00:36:48.400Z,2.10
2019-04-11T00:39:17.344Z,2.10
2019-04-11T00:41:46.159Z,2.10
2019-04-11T00:44:15.008Z,2.00
2019-04-11T00:46:44.612Z,2.00
2019-04-11T00:49:14.419Z,2.10
2019-04-11T00:51:44.327Z,2.10
2019-04-11T00:54:14.204Z,2.00
2019-04-11T00:56:44.172Z,1.90
2019-04-11T00:59:14.142Z,2.00
2019-04-11T01:01:43.119Z,2.00
2019-04-11T01:04:11.956Z,2.10
2019-04-11T01:06:40.796Z,2.00
2019-04-11T01:09:11.003Z,2.00
2019-04-11T01:11:40.396Z,2.00
2019-04-11T01:14:09.864Z,2.00
2019-04-11T01:16:40.975Z,2.00
2019-04-11T01:19:10.820Z,2.00
2019-04-11T01:21:40.410Z,1.90
2019-04-11T01:24:09.428Z,2.00
2019-04-11T01:26:38.268Z,2.00
2019-04-11T01:29:07.201Z,2.10
2019-04-11T01:31:37.839Z,2.10
2019-04-11T01:34:06.668Z,2.10
2019-04-11T01:36:35.539Z,2.20
2019-04-11T01:39:14.456Z,2.00
2019-04-11T01:41:43.349Z,2.00
2019-04-11T01:44:12.396Z,2.00
2019-04-11T01:46:42.366Z,1.90
2019-04-11T01:49:14.289Z,1.90
2019-04-11T01:51:43.288Z,1.80
2019-04-11T01:54:13.223Z,1.80
2019-04-11T01:56:42.196Z,1.80
2019-04-11T01:59:11.132Z,1.80
2019-04-11T02:01:58.056Z,1.90
2019-04-11T02:04:32.083Z,1.90
2019-04-11T02:07:01.131Z,1.90
2019-04-11T02:09:30.380Z,1.80
2019-04-11T02:11:59.408Z,1.70
2019-04-11T02:14:28.256Z,1.60
2019-04-11T02:16:57.196Z,1.70
2019-04-11T02:19:26.060Z,1.60
2019-04-11T02:21:56.464Z,1.50
2019-04-11T02:24:30.040Z,1.50
2019-04-11T02:27:00.819Z,1.50
2019-04-11T02:29:29.854Z,1.50
2019-04-11T02:32:01.287Z,1.50
2019-04-11T02:34:29.705Z,1.40
2019-04-11T02:37:00.141Z,1.40
2019-04-11T02:39:30.820Z,1.40
2019-04-11T02:42:01.423Z,1.40
2019-04-11T02:44:49.599Z,1.30
2019-04-11T02:47:08.459Z,1.40
2019-04-11T02:49:32.919Z,1.40
2019-04-11T02:52:02.717Z,1.40
2019-04-11T02:54:33.552Z,1.40
2019-04-11T02:57:02.739Z,1.30
2019-04-11T02:59:32.509Z,1.30
2019-04-11T03:02:01.505Z,1.20
2019-04-11T03:04:31.132Z,1.20
2019-04-11T03:07:00.660Z,1.20
2019-04-11T03:09:31.052Z,1.20
2019-04-11T03:12:00.721Z,1.30
2019-04-11T03:14:46.384Z,1.30
2019-04-11T03:17:11.978Z,1.30
2019-04-11T03:19:46.848Z,1.40
2019-04-11T03:22:03.143Z,1.30
2019-04-11T03:24:35.273Z,1.30
2019-04-11T03:27:04.793Z,1.30
2019-04-11T03:29:35.633Z,1.20
2019-04-11T03:32:37.233Z,1.20
2019-04-11T03:37:26.103Z,1.20
2019-04-11T03:39:57.325Z,1.20
2019-04-11T03:42:21.941Z,1.20
2019-04-11T03:44:42.738Z,1.30
2019-04-11T03:47:20.302Z,1.30
2019-04-11T03:49:46.690Z,1.20
2019-04-11T03:52:10.613Z,1.30
2019-04-11T03:54:41.021Z,1.30
2019-04-11T03:57:10.740Z,1.00
2019-04-11T03:59:40.695Z,1.00
2019-04-11T04:02:10.795Z,1.00
2019-04-11T04:04:41.533Z,1.10
2019-04-11T04:07:13.112Z,1.10
2019-04-11T04:09:43.964Z,1.20
2019-04-11T04:12:13.670Z,1.20
2019-04-11T04:14:46.780Z,1.30
2019-04-11T04:17:27.779Z,1.20
2019-04-11T04:20:08.768Z,1.20
2019-04-11T04:22:56.491Z,1.30
2019-04-11T04:25:26.137Z,1.20
2019-04-11T04:27:56.747Z,1.40
2019-04-11T04:30:27.699Z,1.40
2019-04-11T04:32:56.779Z,1.40
2019-04-11T04:35:28.455Z,1.40
2019-04-11T04:37:57.174Z,1.40
2019-04-11T04:40:47.279Z,1.60
2019-04-11T04:43:01.403Z,1.50
2019-04-11T04:45:49.554Z,1.50
2019-04-11T04:48:07.277Z,1.50
2019-04-11T04:50:32.032Z,1.50
2019-04-11T04:53:02.567Z,1.40
2019-04-11T04:55:32.595Z,1.50
2019-04-11T04:58:02.063Z,1.50
2019-04-11T05:00:31.932Z,1.60
2019-04-11T05:03:02.193Z,1.60
2019-04-11T05:05:31.325Z,1.60
2019-04-11T05:08:00.615Z,1.60
2019-04-11T05:10:30.692Z,1.60
2019-04-11T05:12:59.789Z,1.70
2019-04-11T05:15:28.644Z,1.80
2019-04-11T05:17:57.777Z,1.80
2019-04-11T05:20:26.620Z,1.70
2019-04-11T05:22:55.905Z,1.60
2019-04-11T05:25:24.855Z,1.70
2019-04-11T05:27:54.021Z,1.60
2019-04-11T05:30:23.166Z,1.70
2019-04-11T05:32:52.240Z,1.70
2019-04-11T05:35:22.785Z,1.70
2019-04-11T05:37:51.766Z,1.70
2019-04-11T05:40:21.122Z,1.60
2019-04-11T05:42:53.466Z,1.60
2019-04-11T05:45:22.631Z,1.70
2019-04-11T05:47:54.664Z,1.60
2019-04-11T05:50:24.366Z,1.60
2019-04-11T05:52:54.509Z,1.60
2019-04-11T05:55:24.179Z,1.50
2019-04-11T05:57:53.028Z,1.60
2019-04-11T06:00:36.739Z,1.40
2019-04-11T06:03:07.827Z,1.50
2019-04-11T06:05:43.123Z,1.60
2019-04-11T06:08:21.121Z,1.70
2019-04-11T06:10:46.492Z,1.80
2019-04-11T06:13:24.547Z,1.80
2019-04-11T06:16:02.999Z,1.70
2019-04-11T06:18:37.803Z,1.70
2019-04-11T06:21:13.106Z,1.70
2019-04-11T06:23:46.300Z,1.70
2019-04-11T06:26:26.910Z,1.90
2019-04-11T06:28:57.476Z,1.90
2019-04-11T06:31:45.319Z,2.00
2019-04-11T06:34:15.466Z,2.10
2019-04-11T06:36:58.368Z,1.90
2019-04-11T06:39:31.485Z,2.00
2019-04-11T06:42:05.946Z,2.00
2019-04-11T06:44:52.792Z,2.00
2019-04-11T06:47:29.219Z,2.00
2019-04-11T06:50:02.805Z,2.00
2019-04-11T06:52:32.811Z,2.10
2019-04-11T06:55:04.500Z,2.10
2019-04-11T06:57:34.396Z,2.10
2019-04-11T07:00:05.211Z,2.00
2019-04-11T07:02:36.851Z,2.00
2019-04-11T07:05:12.071Z,2.00
2019-04-11T07:07:43.031Z,2.00
2019-04-11T07:10:12.139Z,2.10
2019-04-11T07:12:45.439Z,2.10
2019-04-11T07:15:16.157Z,2.20
2019-04-11T07:17:49.576Z,2.20
2019-04-11T07:20:20.750Z,2.20
2019-04-11T07:23:07.948Z,2.20
2019-04-11T07:25:44.912Z,2.10
2019-04-11T07:28:18.693Z,2.20
2019-04-11T07:31:06.781Z,2.20
2019-04-11T07:33:43.397Z,2.10
2019-04-11T07:36:31.545Z,2.20
2019-04-11T07:39:05.551Z,2.30
2019-04-11T07:41:39.926Z,2.40
2019-04-11T07:44:11.141Z,2.30
2019-04-11T07:47:01.391Z,2.40
2019-04-11T07:49:44.959Z,2.50
2019-04-11T07:52:15.810Z,2.40
2019-04-11T07:54:45.638Z,2.40
2019-04-11T07:57:33.001Z,2.20
2019-04-11T08:00:06.570Z,2.30
2019-04-11T08:02:53.289Z,2.40
2019-04-11T08:05:38.886Z,2.40
2019-04-11T08:08:09.524Z,2.40
2019-04-11T08:10:48.984Z,2.40
2019-04-11T08:13:31.343Z,2.30
2019-04-11T08:16:18.222Z,2.30
2019-04-11T08:18:48.826Z,2.30
2019-04-11T08:21:26.219Z,2.30
2019-04-11T08:23:56.712Z,2.50
2019-04-11T08:26:44.353Z,2.50
2019-04-11T08:29:15.694Z,2.40
2019-04-11T08:32:02.567Z,2.40
2019-04-11T08:34:33.243Z,2.40
2019-04-11T08:37:07.382Z,2.50
2019-04-11T08:39:37.383Z,2.60
2019-04-11T08:42:07.929Z,2.60
2019-04-11T08:44:36.780Z,2.70
2019-04-11T08:47:06.064Z,2.70
2019-04-11T08:49:37.495Z,2.80
2019-04-11T08:52:08.087Z,2.80
2019-04-11T08:54:50.234Z,2.70
2019-04-11T08:57:38.721Z,2.70
2019-04-11T09:00:15.708Z,2.70
2019-04-11T09:02:45.034Z,3.00
2019-04-11T09:05:29.161Z,2.80
2019-04-11T09:08:12.114Z,2.80
2019-04-11T09:10:49.693Z,2.80
2019-04-11T09:13:37.670Z,2.60
2019-04-11T09:16:25.675Z,2.70
2019-04-11T09:18:57.336Z,2.70
2019-04-11T09:21:44.660Z,2.50
2019-04-11T09:24:34.597Z,2.70
2019-04-11T09:27:22.652Z,2.70
2019-04-11T09:30:02.610Z,2.80
2019-04-11T09:32:42.643Z,3.10
2019-04-11T09:35:16.469Z,3.40
2019-04-11T09:37:46.326Z,4.70
2019-04-11T09:40:33.954Z,5.90
2019-04-11T09:43:04.585Z,6.10
2019-04-11T09:45:47.952Z,5.30
2019-04-11T09:48:35.010Z,4.90
2019-04-11T09:51:09.389Z,5.30
2019-04-11T09:53:41.054Z,6.00
2019-04-11T09:56:29.161Z,6.60
2019-04-11T09:59:05.330Z,6.90
2019-04-11T10:01:54.040Z,7.40
2019-04-11T10:04:25.635Z,6.90
2019-04-11T10:07:11.162Z,6.20
2019-04-11T10:10:00.220Z,5.90
2019-04-11T10:12:40.500Z,5.60
2019-04-11T10:15:11.371Z,5.60
2019-04-11T10:17:42.501Z,5.10
2019-04-11T10:20:13.293Z,5.10
2019-04-11T10:22:54.349Z,4.90
2019-04-11T10:25:28.905Z,4.80
2019-04-11T10:28:11.841Z,5.00
2019-04-11T10:30:58.447Z,4.80
2019-04-11T10:33:39.266Z,4.80
2019-04-11T10:36:21.597Z,5.10
2019-04-11T10:38:52.978Z,5.50
2019-04-11T10:41:26.197Z,5.50
2019-04-11T10:43:55.116Z,5.10
2019-04-11T10:46:41.763Z,5.10
2019-04-11T10:49:21.978Z,5.20
2019-04-11T10:52:04.735Z,5.30
2019-04-11T10:54:34.696Z,4.90
2019-04-11T10:57:11.802Z,4.80
2019-04-11T10:59:42.934Z,4.70
2019-04-11T11:02:30.127Z,4.60
2019-04-11T11:04:59.291Z,4.40
2019-04-11T11:07:30.727Z,4.20
2019-04-11T11:10:03.811Z,4.20
2019-04-11T11:12:45.780Z,4.30
2019-04-11T11:18:42.660Z,4.50
2019-04-11T11:20:57.137Z,4.30
2019-04-11T11:23:42.849Z,4.10
2019-04-11T11:26:14.491Z,4.40
2019-04-11T11:28:51.063Z,4.20
2019-04-11T11:31:22.369Z,4.10
2019-04-11T11:33:51.736Z,4.10
2019-04-11T11:36:39.530Z,4.00
2019-04-11T11:39:25.125Z,3.90
2019-04-11T11:42:10.888Z,4.10
2019-04-11T11:44:53.244Z,4.30
2019-04-11T11:47:41.520Z,4.20
2019-04-11T11:50:17.962Z,4.10
2019-04-11T11:52:59.578Z,4.30
2019-04-11T11:55:38.989Z,4.40
2019-04-11T11:58:25.826Z,4.50
2019-04-11T12:00:57.844Z,4.50
2019-04-11T12:03:40.308Z,4.30
2019-04-11T12:06:09.590Z,4.40
2019-04-11T12:08:45.313Z,4.40
2019-04-11T12:11:13.519Z,4.50
2019-04-11T12:14:00.473Z,4.70
2019-04-11T12:16:34.641Z,4.70
2019-04-11T12:19:05.231Z,4.60
2019-04-11T12:21:36.677Z,4.60
2019-04-11T12:24:25.081Z,4.60
2019-04-11T12:27:13.072Z,4.70
2019-04-11T12:29:55.719Z,4.50
2019-04-11T12:32:32.690Z,4.40
2019-04-11T12:35:06.171Z,4.30
2019-04-11T12:37:39.497Z,4.50
2019-04-11T12:40:26.520Z,4.50
2019-04-11T12:42:56.735Z,4.60
2019-04-11T12:45:36.480Z,4.60
2019-04-11T12:48:05.472Z,4.60
2019-04-11T12:50:36.003Z,4.50
2019-04-11T12:53:06.540Z,4.50
2019-04-11T12:55:40.003Z,4.50
2019-04-11T12:58:13.368Z,4.50
2019-04-11T13:00:47.028Z,4.90
2019-04-11T13:03:31.175Z,4.90
2019-04-11T13:06:13.683Z,4.70
2019-04-11T13:09:18.310Z,4.50
2019-04-11T13:11:51.963Z,4.50
2019-04-11T13:14:22.457Z,4.50
2019-04-11T13:16:58.968Z,4.40
2019-04-11T13:19:29.413Z,4.50
2019-04-11T13:21:59.803Z,4.50
2019-04-11T13:24:48.253Z,4.50
2019-04-11T13:27:23.029Z,4.50
2019-04-11T13:30:09.631Z,4.50
2019-04-11T13:32:52.067Z,4.30
2019-04-11T13:35:31.030Z,4.30
2019-04-11T13:38:04.382Z,4.20
2019-04-11T13:40:46.841Z,4.10
2019-04-11T13:43:35.583Z,4.00
2019-04-11T13:46:08.936Z,3.90
2019-04-11T13:48:48.171Z,4.00
2019-04-11T13:51:24.499Z,4.00
2019-04-11T13:54:11.145Z,3.90
2019-04-11T13:56:56.700Z,3.90
2019-04-11T13:59:36.482Z,3.90
2019-04-11T14:02:17.238Z,3.80
2019-04-11T14:04:54.582Z,3.90
2019-04-11T14:07:27.920Z,4.00
2019-04-11T14:09:59.082Z,3.90
2019-04-11T14:12:28.842Z,3.90
2019-04-11T14:14:59.258Z,3.90
2019-04-11T14:17:46.074Z,4.00
2019-04-11T14:20:28.337Z,4.10
2019-04-11T14:22:52.134Z,4.10
2019-04-11T14:25:38.963Z,4.20
2019-04-11T14:28:09.641Z,4.00
2019-04-11T14:30:52.310Z,4.00
2019-04-11T14:33:23.593Z,3.90
2019-04-11T14:36:01.241Z,3.60
2019-04-11T14:38:31.993Z,3.50
2019-04-11T14:41:18.346Z,3.60
2019-04-11T14:43:54.542Z,3.60
2019-04-11T14:46:42.965Z,3.60
2019-04-11T14:49:12.242Z,3.50
2019-04-11T14:51:46.263Z,3.40
2019-04-11T14:54:18.384Z,3.40
2019-04-11T14:56:52.124Z,3.40
2019-04-11T14:59:30.151Z,3.40
2019-04-11T15:02:12.689Z,3.40
2019-04-11T15:04:59.312Z,3.30
2019-04-11T15:07:29.574Z,3.40
2019-04-11T15:09:59.983Z,3.40
2019-04-11T15:12:43.279Z,3.30
2019-04-11T15:15:29.210Z,3.20
2019-04-11T15:17:59.635Z,3.10
2019-04-11T15:20:54.187Z,3.20
2019-04-11T15:23:26.286Z,3.20
2019-04-11T15:25:57.638Z,3.20
2019-04-11T15:28:28.047Z,3.10
2019-04-11T15:31:13.838Z,3.00
2019-04-11T15:33:47.343Z,3.00
2019-04-11T15:36:17.779Z,2.90
2019-04-11T15:38:48.192Z,3.00
2019-04-11T15:41:17.077Z,2.90
2019-04-11T15:43:50.233Z,2.80
2019-04-11T15:46:20.641Z,2.80
2019-04-11T15:49:19.664Z,2.80
2019-04-11T15:51:39.574Z,2.70
2019-04-11T15:54:12.704Z,2.70
2019-04-11T15:56:55.105Z,2.70
2019-04-11T15:59:28.209Z,2.60
2019-04-11T16:02:16.675Z,2.70
2019-04-11T16:04:47.393Z,2.60
2019-04-11T16:07:37.387Z,2.60
2019-04-11T16:10:11.729Z,2.60
2019-04-11T16:12:40.228Z,2.60
2019-04-11T16:15:10.677Z,2.60
2019-04-11T16:17:58.010Z,2.60
2019-04-11T16:20:26.917Z,2.50
2019-04-11T16:23:05.919Z,2.60
2019-04-11T16:25:34.752Z,2.60
2019-04-11T16:28:20.547Z,2.60
2019-04-11T16:30:50.997Z,2.60
2019-04-11T16:33:27.051Z,2.60
2019-04-11T16:36:03.445Z,2.60
2019-04-11T16:38:33.870Z,2.60
2019-04-11T16:41:23.687Z,2.60
2019-04-11T16:43:54.640Z,2.60
2019-04-11T16:46:41.277Z,2.60
2019-04-11T16:49:10.033Z,2.60
2019-04-11T16:51:38.854Z,2.70
2019-04-11T16:54:09.589Z,2.60
2019-04-11T16:56:38.172Z,2.50
2019-04-11T16:59:06.961Z,2.50
2019-04-11T17:01:35.741Z,2.50
2019-04-11T17:04:04.551Z,2.50
2019-04-11T17:06:51.004Z,2.40
2019-04-11T17:09:33.370Z,2.50
2019-04-11T17:12:02.228Z,2.50
2019-04-11T17:14:33.213Z,2.50
2019-04-11T17:17:20.795Z,2.50
2019-04-11T17:19:49.716Z,2.40
2019-04-11T17:22:18.910Z,2.40
2019-04-11T17:24:48.707Z,2.40
2019-04-11T17:27:50.690Z,2.30
2019-04-11T17:30:17.549Z,2.40
2019-04-11T17:32:46.426Z,2.40
2019-04-11T17:35:15.446Z,2.40
2019-04-11T17:37:44.519Z,2.40
2019-04-11T17:40:13.511Z,2.40
2019-04-11T17:42:43.993Z,2.50
2019-04-11T17:45:13.102Z,2.40
2019-04-11T17:47:41.872Z,2.40
2019-04-11T17:50:10.729Z,2.40
2019-04-11T17:52:39.704Z,2.40
2019-04-11T17:55:08.660Z,2.50
2019-04-11T17:57:37.482Z,2.50
2019-04-11T18:00:09.404Z,2.60
2019-04-11T18:02:39.015Z,2.50
2019-04-11T18:05:08.833Z,2.50
2019-04-11T18:07:37.629Z,2.50
2019-04-11T18:10:07.419Z,2.50
2019-04-11T18:12:36.227Z,2.60
2019-04-11T18:15:07.568Z,2.50
2019-04-11T18:17:36.700Z,2.60
2019-04-11T18:20:08.766Z,2.60
2019-04-11T18:22:37.559Z,2.60
2019-04-11T18:25:07.024Z,2.60
2019-04-11T18:27:35.844Z,2.60
2019-04-11T18:30:09.963Z,2.70
2019-04-11T18:32:38.843Z,2.60
2019-04-11T18:35:08.046Z,2.60
2019-04-11T18:37:36.944Z,2.70
2019-04-11T18:40:10.158Z,2.70
2019-04-11T18:42:37.692Z,2.70
2019-04-11T18:45:07.862Z,2.70
2019-04-11T18:47:36.910Z,2.70
2019-04-11T18:50:09.187Z,2.60
2019-04-11T18:52:38.064Z,2.50
2019-04-11T18:55:08.284Z,2.50
2019-04-11T18:57:37.036Z,2.50
2019-04-11T19:00:08.939Z,2.50
2019-04-11T19:02:37.873Z,2.40
2019-04-11T19:05:08.123Z,2.30
2019-04-11T19:07:36.893Z,2.20
2019-04-11T19:10:09.350Z,2.10
2019-04-11T19:12:37.479Z,2.10
2019-04-11T19:15:07.364Z,2.00
2019-04-11T19:17:36.144Z,1.90
2019-04-11T19:20:06.701Z,1.80
2019-04-11T19:22:38.239Z,1.70
2019-04-11T19:25:06.649Z,1.60
2019-04-11T19:27:35.543Z,1.50
2019-04-11T19:30:07.176Z,1.40
2019-04-11T19:32:36.024Z,1.20
2019-04-11T19:35:05.199Z,1.10
2019-04-11T19:37:34.006Z,1.00
2019-04-11T19:40:02.857Z,0.90
2019-04-11T19:42:31.642Z,0.80
2019-04-11T19:45:02.815Z,1.00
2019-04-11T19:47:30.849Z,1.00
2019-04-11T19:49:59.674Z,0.90
2019-04-11T19:52:29.934Z,0.90
2019-04-11T19:55:04.751Z,1.00
2019-04-11T19:57:31.141Z,1.00
2019-04-11T19:59:59.908Z,1.10
2019-04-11T20:02:28.760Z,1.00
2019-04-11T20:04:57.841Z,1.00
2019-04-11T20:07:27.202Z,1.10
2019-04-11T20:09:56.112Z,1.10
2019-04-11T20:12:25.100Z,1.10
2019-04-11T20:14:53.955Z,1.10
2019-04-11T20:17:22.736Z,1.30
2019-04-11T20:20:00.803Z,1.30
2019-04-11T20:22:22.138Z,1.40
2019-04-11T20:24:50.984Z,1.50
2019-04-11T20:27:20.348Z,1.50
2019-04-11T20:29:52.115Z,1.70
2019-04-11T20:32:21.042Z,1.70
2019-04-11T20:34:50.029Z,1.90
2019-04-11T20:37:18.795Z,1.90
2019-04-11T20:39:47.657Z,2.00
2019-04-11T20:42:17.298Z,2.00
2019-04-11T20:44:46.252Z,2.10
2019-04-11T20:47:16.794Z,2.10
2019-04-11T20:49:47.092Z,2.10
2019-04-11T20:52:15.902Z,2.10
2019-04-11T20:54:45.350Z,2.30
2019-04-11T20:57:24.910Z,2.50
2019-04-11T20:59:44.627Z,2.60
2019-04-11T21:02:13.442Z,2.60
2019-04-11T21:04:42.288Z,2.60
2019-04-11T21:07:11.188Z,2.60
2019-04-11T21:09:40.065Z,2.60
2019-04-11T21:12:08.943Z,2.50
2019-04-11T21:14:37.837Z,2.50
2019-04-11T21:17:06.753Z,2.50
2019-04-11T21:19:35.665Z,2.50
2019-04-11T21:22:04.683Z,2.50
2019-04-11T21:24:33.579Z,2.40
2019-04-11T21:27:02.460Z,2.40
2019-04-11T21:29:50.630Z,2.40
2019-04-11T21:32:19.513Z,2.40
2019-04-11T21:34:48.379Z,2.30
2019-04-11T21:37:17.267Z,2.50
2019-04-11T21:39:46.226Z,2.30
2019-04-11T21:42:15.164Z,2.40
2019-04-11T21:44:44.051Z,2.30
2019-04-11T21:47:12.932Z,2.30
2019-04-11T21:49:41.816Z,2.40
2019-04-11T21:52:12.323Z,2.40
2019-04-11T21:54:45.130Z,2.40
2019-04-11T21:57:11.773Z,2.40
2019-04-11T21:59:40.651Z,2.30
2019-04-11T22:02:11.940Z,2.40
2019-04-11T22:04:40.813Z,2.40
2019-04-11T22:07:09.711Z,2.30
2019-04-11T22:09:38.699Z,2.20
2019-04-11T22:12:08.850Z,2.30
2019-04-11T22:14:41.316Z,2.30
2019-04-11T22:17:08.280Z,2.20
2019-04-11T22:19:37.183Z,2.20
2019-04-11T22:22:06.059Z,2.10
2019-04-11T22:24:34.945Z,2.20
2019-04-11T22:27:03.844Z,2.10
2019-04-11T22:29:32.710Z,2.10
2019-04-11T22:32:01.600Z,2.10
2019-04-11T22:34:32.048Z,2.00
2019-04-11T22:37:00.959Z,1.90
2019-04-11T22:39:31.532Z,1.80
2019-04-11T22:42:00.724Z,1.80
2019-04-11T22:44:29.592Z,1.70
2019-04-11T22:46:58.462Z,1.70
2019-04-11T22:49:27.374Z,1.50
2019-04-11T22:51:56.242Z,1.40
2019-04-11T22:54:25.137Z,1.40
2019-04-11T22:56:54.332Z,1.30
2019-04-11T22:59:23.195Z,1.40
2019-04-11T23:01:53.688Z,1.20
2019-04-11T23:04:22.584Z,1.10
2019-04-11T23:06:51.477Z,1.00
2019-04-11T23:09:20.348Z,0.90
2019-04-11T23:11:49.225Z,0.90
2019-04-11T23:14:18.131Z,0.80
2019-04-11T23:16:46.998Z,0.60
2019-04-11T23:19:15.888Z,0.50
2019-04-11T23:21:44.772Z,0.40
2019-04-11T23:24:13.638Z,0.30
2019-04-11T23:26:42.534Z,0.20
2019-04-11T23:29:11.420Z,0.20
2019-04-11T23:31:40.287Z,0.20
2019-04-11T23:34:09.063Z,0.20
2019-04-11T23:36:37.956Z,0.10
2019-04-11T23:39:07.539Z,0.20
2019-04-11T23:41:36.346Z,0.40
2019-04-11T23:44:05.242Z,0.40
2019-04-11T23:46:34.136Z,0.40
2019-04-11T23:49:03.021Z,0.40
2019-04-11T23:51:51.169Z,0.40
2019-04-11T23:54:23.305Z,0.40
2019-04-11T23:56:50.455Z,0.40
2019-04-11T23:59:19.378Z,0.40
